sensor_id;sensor_type;location;lat;lon;timestamp;P1;durP1;ratioP1;P2;durP2;ratioP2
46651;SDS011;32377;52.182;5.398;2023-07-30T00:01:56;15.32;;;3.30;;
46651;SDS011;32377;52.182;5.398;2023-07-30T00:04:21;19.55;;;3.28;;
46651;SDS011;32377;52.182;5.398;2023-07-30T00:06:48;15.57;;;3.20;;
46651;SDS011;32377;52.182;5.398;2023-07-30T00:09:14;14.80;;;3.38;;
46651;SDS011;32377;52.182;5.398;2023-07-30T00:11:39;15.90;;;3.30;;
46651;SDS011;32377;52.182;5.398;2023-07-30T00:14:05;14.60;;;2.80;;
46651;SDS011;32377;52.182;5.398;2023-07-30T00:16:31;15.65;;;3.38;;
46651;SDS011;32377;52.182;5.398;2023-07-30T00:18:56;10.52;;;2.58;;
46651;SDS011;32377;52.182;5.398;2023-07-30T00:21:22;16.80;;;3.33;;
46651;SDS011;32377;52.182;5.398;2023-07-30T00:23:48;14.63;;;3.63;;
46651;SDS011;32377;52.182;5.398;2023-07-30T00:26:14;10.20;;;2.90;;
46651;SDS011;32377;52.182;5.398;2023-07-30T00:28:40;10.82;;;2.60;;
46651;SDS011;32377;52.182;5.398;2023-07-30T00:31:05;12.70;;;2.92;;
46651;SDS011;32377;52.182;5.398;2023-07-30T00:33:31;6.75;;;2.60;;
46651;SDS011;32377;52.182;5.398;2023-07-30T00:35:56;10.30;;;2.55;;
46651;SDS011;32377;52.182;5.398;2023-07-30T00:38:22;11.20;;;2.60;;
46651;SDS011;32377;52.182;5.398;2023-07-30T00:40:48;10.27;;;3.00;;
46651;SDS011;32377;52.182;5.398;2023-07-30T00:43:14;10.38;;;2.50;;
46651;SDS011;32377;52.182;5.398;2023-07-30T00:45:40;10.02;;;2.85;;
46651;SDS011;32377;52.182;5.398;2023-07-30T00:48:07;11.93;;;2.72;;
46651;SDS011;32377;52.182;5.398;2023-07-30T00:50:34;13.50;;;2.92;;
46651;SDS011;32377;52.182;5.398;2023-07-30T00:53:00;10.45;;;3.08;;
46651;SDS011;32377;52.182;5.398;2023-07-30T00:55:25;13.73;;;3.47;;
46651;SDS011;32377;52.182;5.398;2023-07-30T00:57:51;8.30;;;3.10;;
46651;SDS011;32377;52.182;5.398;2023-07-30T01:00:17;11.13;;;2.70;;
46651;SDS011;32377;52.182;5.398;2023-07-30T01:02:43;14.48;;;3.50;;
46651;SDS011;32377;52.182;5.398;2023-07-30T01:05:09;16.45;;;3.55;;
46651;SDS011;32377;52.182;5.398;2023-07-30T01:07:34;9.23;;;2.65;;
46651;SDS011;32377;52.182;5.398;2023-07-30T01:10:00;10.55;;;2.97;;
46651;SDS011;32377;52.182;5.398;2023-07-30T01:12:28;8.73;;;3.45;;
46651;SDS011;32377;52.182;5.398;2023-07-30T01:14:55;12.93;;;4.15;;
46651;SDS011;32377;52.182;5.398;2023-07-30T01:17:21;8.02;;;3.13;;
46651;SDS011;32377;52.182;5.398;2023-07-30T01:19:48;10.90;;;3.30;;
46651;SDS011;32377;52.182;5.398;2023-07-30T01:22:14;11.95;;;3.53;;
46651;SDS011;32377;52.182;5.398;2023-07-30T01:24:41;13.27;;;3.10;;
46651;SDS011;32377;52.182;5.398;2023-07-30T01:27:07;14.93;;;3.88;;
46651;SDS011;32377;52.182;5.398;2023-07-30T01:29:45;12.88;;;3.58;;
46651;SDS011;32377;52.182;5.398;2023-07-30T01:32:16;13.02;;;3.75;;
46651;SDS011;32377;52.182;5.398;2023-07-30T01:34:44;14.57;;;3.80;;
46651;SDS011;32377;52.182;5.398;2023-07-30T01:37:14;17.23;;;3.58;;
46651;SDS011;32377;52.182;5.398;2023-07-30T01:39:41;19.23;;;3.92;;
46651;SDS011;32377;52.182;5.398;2023-07-30T01:42:11;15.02;;;3.80;;
46651;SDS011;32377;52.182;5.398;2023-07-30T01:44:37;14.73;;;3.60;;
46651;SDS011;32377;52.182;5.398;2023-07-30T01:47:03;11.60;;;3.55;;
46651;SDS011;32377;52.182;5.398;2023-07-30T01:49:28;16.00;;;4.03;;
46651;SDS011;32377;52.182;5.398;2023-07-30T01:51:54;11.75;;;3.42;;
46651;SDS011;32377;52.182;5.398;2023-07-30T01:54:19;11.85;;;3.50;;
46651;SDS011;32377;52.182;5.398;2023-07-30T01:56:45;18.60;;;4.05;;
46651;SDS011;32377;52.182;5.398;2023-07-30T01:59:10;19.20;;;4.03;;
46651;SDS011;32377;52.182;5.398;2023-07-30T02:01:36;13.05;;;3.47;;
46651;SDS011;32377;52.182;5.398;2023-07-30T02:04:02;12.43;;;3.78;;
46651;SDS011;32377;52.182;5.398;2023-07-30T02:06:27;12.43;;;3.65;;
46651;SDS011;32377;52.182;5.398;2023-07-30T02:08:53;14.88;;;3.95;;
46651;SDS011;32377;52.182;5.398;2023-07-30T02:11:18;15.10;;;4.00;;
46651;SDS011;32377;52.182;5.398;2023-07-30T02:13:44;15.23;;;3.35;;
46651;SDS011;32377;52.182;5.398;2023-07-30T02:16:10;17.20;;;3.80;;
46651;SDS011;32377;52.182;5.398;2023-07-30T02:18:35;18.30;;;4.07;;
46651;SDS011;32377;52.182;5.398;2023-07-30T02:21:01;13.93;;;4.00;;
46651;SDS011;32377;52.182;5.398;2023-07-30T02:23:26;12.35;;;3.72;;
46651;SDS011;32377;52.182;5.398;2023-07-30T02:25:53;16.98;;;3.95;;
46651;SDS011;32377;52.182;5.398;2023-07-30T02:28:18;14.93;;;3.50;;
46651;SDS011;32377;52.182;5.398;2023-07-30T02:30:44;14.13;;;3.75;;
46651;SDS011;32377;52.182;5.398;2023-07-30T02:33:09;12.07;;;4.07;;
46651;SDS011;32377;52.182;5.398;2023-07-30T02:35:35;15.20;;;4.55;;
46651;SDS011;32377;52.182;5.398;2023-07-30T02:38:00;20.35;;;4.50;;
46651;SDS011;32377;52.182;5.398;2023-07-30T02:40:26;13.25;;;3.53;;
46651;SDS011;32377;52.182;5.398;2023-07-30T02:42:52;15.68;;;4.10;;
46651;SDS011;32377;52.182;5.398;2023-07-30T02:45:17;13.90;;;3.78;;
46651;SDS011;32377;52.182;5.398;2023-07-30T02:47:43;18.10;;;3.83;;
46651;SDS011;32377;52.182;5.398;2023-07-30T02:50:09;11.95;;;4.20;;
46651;SDS011;32377;52.182;5.398;2023-07-30T02:52:34;20.58;;;5.35;;
46651;SDS011;32377;52.182;5.398;2023-07-30T02:55:00;12.55;;;4.15;;
46651;SDS011;32377;52.182;5.398;2023-07-30T02:57:26;15.85;;;4.40;;
46651;SDS011;32377;52.182;5.398;2023-07-30T02:59:51;22.90;;;4.72;;
46651;SDS011;32377;52.182;5.398;2023-07-30T03:02:17;23.05;;;4.38;;
46651;SDS011;32377;52.182;5.398;2023-07-30T03:04:42;27.70;;;6.07;;
46651;SDS011;32377;52.182;5.398;2023-07-30T03:07:09;20.30;;;5.13;;
46651;SDS011;32377;52.182;5.398;2023-07-30T03:09:34;21.25;;;4.93;;
46651;SDS011;32377;52.182;5.398;2023-07-30T03:12:00;22.90;;;5.20;;
46651;SDS011;32377;52.182;5.398;2023-07-30T03:14:27;28.20;;;5.25;;
46651;SDS011;32377;52.182;5.398;2023-07-30T03:16:52;22.40;;;6.03;;
46651;SDS011;32377;52.182;5.398;2023-07-30T03:19:18;16.38;;;5.30;;
46651;SDS011;32377;52.182;5.398;2023-07-30T03:21:44;25.98;;;5.07;;
46651;SDS011;32377;52.182;5.398;2023-07-30T03:24:09;18.38;;;4.60;;
46651;SDS011;32377;52.182;5.398;2023-07-30T03:26:35;17.67;;;4.97;;
46651;SDS011;32377;52.182;5.398;2023-07-30T03:29:00;22.92;;;6.07;;
46651;SDS011;32377;52.182;5.398;2023-07-30T03:31:26;27.17;;;5.72;;
46651;SDS011;32377;52.182;5.398;2023-07-30T03:33:53;23.60;;;5.65;;
46651;SDS011;32377;52.182;5.398;2023-07-30T03:36:19;25.85;;;5.80;;
46651;SDS011;32377;52.182;5.398;2023-07-30T03:38:45;18.83;;;5.10;;
46651;SDS011;32377;52.182;5.398;2023-07-30T03:41:10;28.58;;;6.07;;
46651;SDS011;32377;52.182;5.398;2023-07-30T03:43:36;26.52;;;5.78;;
46651;SDS011;32377;52.182;5.398;2023-07-30T03:46:02;30.10;;;7.22;;
46651;SDS011;32377;52.182;5.398;2023-07-30T03:48:28;22.08;;;6.53;;
46651;SDS011;32377;52.182;5.398;2023-07-30T03:50:53;24.75;;;6.80;;
46651;SDS011;32377;52.182;5.398;2023-07-30T03:53:19;30.52;;;6.22;;
46651;SDS011;32377;52.182;5.398;2023-07-30T03:58:56;30.58;;;7.25;;
46651;SDS011;32377;52.182;5.398;2023-07-30T04:01:21;37.97;;;7.10;;
46651;SDS011;32377;52.182;5.398;2023-07-30T04:03:47;32.88;;;6.63;;
46651;SDS011;32377;52.182;5.398;2023-07-30T04:06:13;22.77;;;6.45;;
46651;SDS011;32377;52.182;5.398;2023-07-30T04:08:38;27.25;;;7.03;;
46651;SDS011;32377;52.182;5.398;2023-07-30T04:11:04;28.25;;;7.32;;
46651;SDS011;32377;52.182;5.398;2023-07-30T04:13:29;36.33;;;7.75;;
46651;SDS011;32377;52.182;5.398;2023-07-30T04:15:55;32.17;;;6.78;;
46651;SDS011;32377;52.182;5.398;2023-07-30T04:18:21;24.23;;;6.47;;
46651;SDS011;32377;52.182;5.398;2023-07-30T04:20:47;36.28;;;7.72;;
46651;SDS011;32377;52.182;5.398;2023-07-30T04:23:13;32.03;;;7.00;;
46651;SDS011;32377;52.182;5.398;2023-07-30T04:25:39;31.45;;;7.25;;
46651;SDS011;32377;52.182;5.398;2023-07-30T04:28:04;36.92;;;7.63;;
46651;SDS011;32377;52.182;5.398;2023-07-30T04:30:30;33.72;;;7.90;;
46651;SDS011;32377;52.182;5.398;2023-07-30T04:32:57;36.47;;;7.63;;
46651;SDS011;32377;52.182;5.398;2023-07-30T04:35:22;38.75;;;7.68;;
46651;SDS011;32377;52.182;5.398;2023-07-30T04:37:48;37.25;;;7.65;;
46651;SDS011;32377;52.182;5.398;2023-07-30T04:40:13;30.48;;;7.10;;
46651;SDS011;32377;52.182;5.398;2023-07-30T04:42:39;35.63;;;8.05;;
46651;SDS011;32377;52.182;5.398;2023-07-30T04:45:05;34.53;;;7.40;;
46651;SDS011;32377;52.182;5.398;2023-07-30T04:47:31;42.53;;;7.80;;
46651;SDS011;32377;52.182;5.398;2023-07-30T04:49:56;44.75;;;8.57;;
46651;SDS011;32377;52.182;5.398;2023-07-30T04:52:22;42.60;;;8.93;;
46651;SDS011;32377;52.182;5.398;2023-07-30T04:54:47;41.35;;;9.25;;
46651;SDS011;32377;52.182;5.398;2023-07-30T04:57:13;37.22;;;9.05;;
46651;SDS011;32377;52.182;5.398;2023-07-30T04:59:39;34.40;;;8.75;;
46651;SDS011;32377;52.182;5.398;2023-07-30T05:02:04;33.97;;;8.38;;
46651;SDS011;32377;52.182;5.398;2023-07-30T05:04:30;35.53;;;8.55;;
46651;SDS011;32377;52.182;5.398;2023-07-30T05:06:56;40.47;;;8.23;;
46651;SDS011;32377;52.182;5.398;2023-07-30T05:09:21;37.95;;;9.38;;
46651;SDS011;32377;52.182;5.398;2023-07-30T05:11:47;33.40;;;8.05;;
46651;SDS011;32377;52.182;5.398;2023-07-30T05:14:15;35.53;;;8.18;;
46651;SDS011;32377;52.182;5.398;2023-07-30T05:16:41;37.60;;;7.55;;
46651;SDS011;32377;52.182;5.398;2023-07-30T05:19:06;33.85;;;7.72;;
46651;SDS011;32377;52.182;5.398;2023-07-30T05:21:33;42.60;;;8.63;;
46651;SDS011;32377;52.182;5.398;2023-07-30T05:23:58;39.92;;;8.68;;
46651;SDS011;32377;52.182;5.398;2023-07-30T05:26:24;41.80;;;8.90;;
46651;SDS011;32377;52.182;5.398;2023-07-30T05:28:50;33.83;;;8.32;;
46651;SDS011;32377;52.182;5.398;2023-07-30T05:31:16;33.15;;;9.20;;
46651;SDS011;32377;52.182;5.398;2023-07-30T05:33:41;47.22;;;9.25;;
46651;SDS011;32377;52.182;5.398;2023-07-30T05:36:07;32.92;;;9.10;;
46651;SDS011;32377;52.182;5.398;2023-07-30T05:38:33;37.22;;;9.15;;
46651;SDS011;32377;52.182;5.398;2023-07-30T05:40:58;31.52;;;9.07;;
46651;SDS011;32377;52.182;5.398;2023-07-30T05:43:24;44.40;;;8.80;;
46651;SDS011;32377;52.182;5.398;2023-07-30T05:45:49;32.17;;;9.05;;
46651;SDS011;32377;52.182;5.398;2023-07-30T05:48:15;38.83;;;9.63;;
46651;SDS011;32377;52.182;5.398;2023-07-30T05:50:41;44.58;;;10.38;;
46651;SDS011;32377;52.182;5.398;2023-07-30T05:53:07;35.08;;;8.80;;
46651;SDS011;32377;52.182;5.398;2023-07-30T05:55:32;36.88;;;9.70;;
46651;SDS011;32377;52.182;5.398;2023-07-30T05:57:58;28.83;;;9.13;;
46651;SDS011;32377;52.182;5.398;2023-07-30T06:00:23;28.58;;;8.70;;
46651;SDS011;32377;52.182;5.398;2023-07-30T06:02:49;28.30;;;8.25;;
46651;SDS011;32377;52.182;5.398;2023-07-30T06:05:15;37.05;;;9.13;;
46651;SDS011;32377;52.182;5.398;2023-07-30T06:07:40;32.58;;;9.80;;
46651;SDS011;32377;52.182;5.398;2023-07-30T06:10:06;35.80;;;9.70;;
46651;SDS011;32377;52.182;5.398;2023-07-30T06:12:32;34.13;;;9.68;;
46651;SDS011;32377;52.182;5.398;2023-07-30T06:14:58;27.52;;;9.70;;
46651;SDS011;32377;52.182;5.398;2023-07-30T06:17:23;33.28;;;9.60;;
46651;SDS011;32377;52.182;5.398;2023-07-30T06:19:49;34.40;;;10.15;;
46651;SDS011;32377;52.182;5.398;2023-07-30T06:22:14;37.33;;;10.32;;
46651;SDS011;32377;52.182;5.398;2023-07-30T06:24:40;32.13;;;9.40;;
46651;SDS011;32377;52.182;5.398;2023-07-30T06:27:06;29.73;;;10.23;;
46651;SDS011;32377;52.182;5.398;2023-07-30T06:29:31;29.63;;;9.95;;
46651;SDS011;32377;52.182;5.398;2023-07-30T06:31:57;30.77;;;10.02;;
46651;SDS011;32377;52.182;5.398;2023-07-30T06:34:23;27.48;;;9.73;;
46651;SDS011;32377;52.182;5.398;2023-07-30T06:36:48;31.73;;;9.50;;
46651;SDS011;32377;52.182;5.398;2023-07-30T06:39:14;30.33;;;9.93;;
46651;SDS011;32377;52.182;5.398;2023-07-30T06:41:39;28.10;;;8.95;;
46651;SDS011;32377;52.182;5.398;2023-07-30T06:44:05;32.72;;;9.07;;
46651;SDS011;32377;52.182;5.398;2023-07-30T06:46:30;22.63;;;8.60;;
46651;SDS011;32377;52.182;5.398;2023-07-30T06:48:56;28.73;;;9.40;;
46651;SDS011;32377;52.182;5.398;2023-07-30T06:51:24;28.10;;;8.77;;
46651;SDS011;32377;52.182;5.398;2023-07-30T06:53:52;24.20;;;8.52;;
46651;SDS011;32377;52.182;5.398;2023-07-30T06:56:18;26.00;;;8.20;;
46651;SDS011;32377;52.182;5.398;2023-07-30T06:58:44;29.92;;;7.80;;
46651;SDS011;32377;52.182;5.398;2023-07-30T07:01:09;27.35;;;7.32;;
46651;SDS011;32377;52.182;5.398;2023-07-30T07:03:35;24.50;;;7.50;;
46651;SDS011;32377;52.182;5.398;2023-07-30T07:06:00;30.00;;;8.43;;
46651;SDS011;32377;52.182;5.398;2023-07-30T07:08:26;26.90;;;7.80;;
46651;SDS011;32377;52.182;5.398;2023-07-30T07:10:52;29.77;;;8.32;;
46651;SDS011;32377;52.182;5.398;2023-07-30T07:13:18;37.33;;;8.68;;
46651;SDS011;32377;52.182;5.398;2023-07-30T07:15:44;30.25;;;8.60;;
46651;SDS011;32377;52.182;5.398;2023-07-30T07:18:10;30.30;;;8.68;;
46651;SDS011;32377;52.182;5.398;2023-07-30T07:20:36;31.63;;;8.23;;
46651;SDS011;32377;52.182;5.398;2023-07-30T07:23:02;32.10;;;7.57;;
46651;SDS011;32377;52.182;5.398;2023-07-30T07:25:28;28.75;;;7.30;;
46651;SDS011;32377;52.182;5.398;2023-07-30T07:27:54;25.52;;;7.28;;
46651;SDS011;32377;52.182;5.398;2023-07-30T07:30:20;33.38;;;6.63;;
46651;SDS011;32377;52.182;5.398;2023-07-30T07:32:45;22.27;;;6.53;;
46651;SDS011;32377;52.182;5.398;2023-07-30T07:35:15;26.73;;;6.20;;
46651;SDS011;32377;52.182;5.398;2023-07-30T07:37:41;24.20;;;6.57;;
46651;SDS011;32377;52.182;5.398;2023-07-30T07:40:07;25.73;;;6.28;;
46651;SDS011;32377;52.182;5.398;2023-07-30T07:42:34;22.95;;;5.95;;
46651;SDS011;32377;52.182;5.398;2023-07-30T07:45:00;28.75;;;5.97;;
46651;SDS011;32377;52.182;5.398;2023-07-30T07:47:26;26.33;;;6.53;;
46651;SDS011;32377;52.182;5.398;2023-07-30T07:49:52;25.92;;;5.40;;
46651;SDS011;32377;52.182;5.398;2023-07-30T07:52:17;20.15;;;5.85;;
46651;SDS011;32377;52.182;5.398;2023-07-30T07:54:44;24.88;;;6.80;;
46651;SDS011;32377;52.182;5.398;2023-07-30T07:57:10;22.30;;;5.85;;
46651;SDS011;32377;52.182;5.398;2023-07-30T07:59:35;22.00;;;5.13;;
46651;SDS011;32377;52.182;5.398;2023-07-30T08:02:01;22.27;;;5.45;;
46651;SDS011;32377;52.182;5.398;2023-07-30T08:04:27;16.58;;;5.13;;
46651;SDS011;32377;52.182;5.398;2023-07-30T08:06:53;17.80;;;4.65;;
46651;SDS011;32377;52.182;5.398;2023-07-30T08:09:18;23.92;;;5.00;;
46651;SDS011;32377;52.182;5.398;2023-07-30T08:11:44;15.75;;;4.20;;
46651;SDS011;32377;52.182;5.398;2023-07-30T08:14:10;22.67;;;5.40;;
46651;SDS011;32377;52.182;5.398;2023-07-30T08:16:35;29.80;;;6.50;;
46651;SDS011;32377;52.182;5.398;2023-07-30T08:19:01;24.85;;;5.25;;
46651;SDS011;32377;52.182;5.398;2023-07-30T08:21:27;20.50;;;5.15;;
46651;SDS011;32377;52.182;5.398;2023-07-30T08:23:52;25.40;;;6.70;;
46651;SDS011;32377;52.182;5.398;2023-07-30T08:26:18;17.77;;;5.63;;
46651;SDS011;32377;52.182;5.398;2023-07-30T08:28:43;24.10;;;5.40;;
46651;SDS011;32377;52.182;5.398;2023-07-30T08:31:09;20.88;;;5.80;;
46651;SDS011;32377;52.182;5.398;2023-07-30T08:33:35;27.83;;;6.00;;
46651;SDS011;32377;52.182;5.398;2023-07-30T08:36:00;20.90;;;5.45;;
46651;SDS011;32377;52.182;5.398;2023-07-30T08:38:26;21.88;;;5.38;;
46651;SDS011;32377;52.182;5.398;2023-07-30T08:40:53;22.88;;;6.03;;
46651;SDS011;32377;52.182;5.398;2023-07-30T08:43:18;20.45;;;5.57;;
46651;SDS011;32377;52.182;5.398;2023-07-30T08:45:44;23.63;;;6.20;;
46651;SDS011;32377;52.182;5.398;2023-07-30T08:48:10;21.00;;;6.22;;
46651;SDS011;32377;52.182;5.398;2023-07-30T08:50:36;19.85;;;5.85;;
46651;SDS011;32377;52.182;5.398;2023-07-30T08:53:02;21.95;;;5.88;;
46651;SDS011;32377;52.182;5.398;2023-07-30T08:55:28;18.73;;;5.50;;
46651;SDS011;32377;52.182;5.398;2023-07-30T08:57:57;20.08;;;5.65;;
46651;SDS011;32377;52.182;5.398;2023-07-30T09:00:24;26.17;;;5.72;;
46651;SDS011;32377;52.182;5.398;2023-07-30T09:02:52;15.57;;;4.30;;
46651;SDS011;32377;52.182;5.398;2023-07-30T09:05:20;13.25;;;3.83;;
46651;SDS011;32377;52.182;5.398;2023-07-30T09:07:46;17.17;;;4.22;;
46651;SDS011;32377;52.182;5.398;2023-07-30T09:10:12;17.17;;;4.20;;
46651;SDS011;32377;52.182;5.398;2023-07-30T09:12:38;12.65;;;3.17;;
46651;SDS011;32377;52.182;5.398;2023-07-30T09:15:04;19.73;;;3.90;;
46651;SDS011;32377;52.182;5.398;2023-07-30T09:17:31;15.07;;;3.55;;
46651;SDS011;32377;52.182;5.398;2023-07-30T09:20:01;18.42;;;3.70;;
46651;SDS011;32377;52.182;5.398;2023-07-30T09:22:29;15.02;;;4.00;;
46651;SDS011;32377;52.182;5.398;2023-07-30T09:25:04;15.77;;;3.20;;
46651;SDS011;32377;52.182;5.398;2023-07-30T09:27:31;16.42;;;3.67;;
46651;SDS011;32377;52.182;5.398;2023-07-30T09:29:58;18.50;;;3.97;;
46651;SDS011;32377;52.182;5.398;2023-07-30T09:32:26;13.85;;;3.30;;
46651;SDS011;32377;52.182;5.398;2023-07-30T09:35:09;13.48;;;3.72;;
46651;SDS011;32377;52.182;5.398;2023-07-30T09:37:36;20.55;;;3.83;;
46651;SDS011;32377;52.182;5.398;2023-07-30T09:40:06;15.73;;;3.83;;
46651;SDS011;32377;52.182;5.398;2023-07-30T09:42:34;16.48;;;3.13;;
46651;SDS011;32377;52.182;5.398;2023-07-30T09:45:04;16.35;;;3.95;;
46651;SDS011;32377;52.182;5.398;2023-07-30T09:47:32;18.95;;;3.47;;
46651;SDS011;32377;52.182;5.398;2023-07-30T09:50:01;17.55;;;3.67;;
46651;SDS011;32377;52.182;5.398;2023-07-30T09:52:27;13.80;;;3.35;;
46651;SDS011;32377;52.182;5.398;2023-07-30T09:54:55;17.30;;;3.72;;
46651;SDS011;32377;52.182;5.398;2023-07-30T09:58:56;14.30;;;2.92;;
46651;SDS011;32377;52.182;5.398;2023-07-30T10:01:22;9.23;;;3.45;;
46651;SDS011;32377;52.182;5.398;2023-07-30T10:03:50;10.52;;;3.17;;
46651;SDS011;32377;52.182;5.398;2023-07-30T10:06:17;15.60;;;3.30;;
46651;SDS011;32377;52.182;5.398;2023-07-30T10:08:43;10.88;;;2.92;;
46651;SDS011;32377;52.182;5.398;2023-07-30T10:11:13;10.27;;;2.70;;
46651;SDS011;32377;52.182;5.398;2023-07-30T10:13:39;9.75;;;2.08;;
46651;SDS011;32377;52.182;5.398;2023-07-30T10:16:09;9.95;;;2.35;;
46651;SDS011;32377;52.182;5.398;2023-07-30T10:18:39;13.73;;;2.88;;
46651;SDS011;32377;52.182;5.398;2023-07-30T10:21:09;10.68;;;2.58;;
46651;SDS011;32377;52.182;5.398;2023-07-30T10:23:36;8.82;;;2.33;;
46651;SDS011;32377;52.182;5.398;2023-07-30T10:26:11;14.20;;;3.10;;
46651;SDS011;32377;52.182;5.398;2023-07-30T10:28:37;8.55;;;2.45;;
46651;SDS011;32377;52.182;5.398;2023-07-30T10:31:08;8.95;;;2.80;;
46651;SDS011;32377;52.182;5.398;2023-07-30T10:33:49;12.25;;;2.25;;
46651;SDS011;32377;52.182;5.398;2023-07-30T10:36:40;10.95;;;2.60;;
46651;SDS011;32377;52.182;5.398;2023-07-30T10:39:11;14.90;;;2.80;;
46651;SDS011;32377;52.182;5.398;2023-07-30T10:41:36;15.50;;;2.22;;
46651;SDS011;32377;52.182;5.398;2023-07-30T10:44:03;13.05;;;2.58;;
46651;SDS011;32377;52.182;5.398;2023-07-30T10:46:29;8.90;;;1.85;;
46651;SDS011;32377;52.182;5.398;2023-07-30T10:48:54;12.82;;;2.60;;
46651;SDS011;32377;52.182;5.398;2023-07-30T10:51:20;6.35;;;2.05;;
46651;SDS011;32377;52.182;5.398;2023-07-30T10:53:46;8.52;;;2.05;;
46651;SDS011;32377;52.182;5.398;2023-07-30T10:56:15;12.00;;;2.22;;
46651;SDS011;32377;52.182;5.398;2023-07-30T10:58:42;12.35;;;2.50;;
46651;SDS011;32377;52.182;5.398;2023-07-30T11:01:13;8.68;;;1.92;;
46651;SDS011;32377;52.182;5.398;2023-07-30T11:03:38;7.75;;;1.90;;
46651;SDS011;32377;52.182;5.398;2023-07-30T11:06:04;11.65;;;1.88;;
46651;SDS011;32377;52.182;5.398;2023-07-30T11:08:34;7.15;;;1.85;;
46651;SDS011;32377;52.182;5.398;2023-07-30T11:11:01;11.65;;;2.42;;
46651;SDS011;32377;52.182;5.398;2023-07-30T11:13:28;5.93;;;1.83;;
46651;SDS011;32377;52.182;5.398;2023-07-30T11:15:53;8.55;;;2.17;;
46651;SDS011;32377;52.182;5.398;2023-07-30T11:18:19;6.47;;;1.50;;
46651;SDS011;32377;52.182;5.398;2023-07-30T11:20:45;11.25;;;2.25;;
46651;SDS011;32377;52.182;5.398;2023-07-30T11:23:17;6.47;;;1.60;;
46651;SDS011;32377;52.182;5.398;2023-07-30T11:25:48;8.93;;;1.90;;
46651;SDS011;32377;52.182;5.398;2023-07-30T11:28:14;5.40;;;1.20;;
46651;SDS011;32377;52.182;5.398;2023-07-30T11:31:04;12.63;;;2.03;;
46651;SDS011;32377;52.182;5.398;2023-07-30T11:33:36;8.63;;;2.10;;
46651;SDS011;32377;52.182;5.398;2023-07-30T11:36:06;6.55;;;1.70;;
46651;SDS011;32377;52.182;5.398;2023-07-30T11:38:34;10.45;;;2.25;;
46651;SDS011;32377;52.182;5.398;2023-07-30T11:41:00;7.28;;;2.08;;
46651;SDS011;32377;52.182;5.398;2023-07-30T11:43:27;7.80;;;2.05;;
46651;SDS011;32377;52.182;5.398;2023-07-30T11:46:14;8.55;;;1.85;;
46651;SDS011;32377;52.182;5.398;2023-07-30T11:48:40;9.07;;;1.90;;
46651;SDS011;32377;52.182;5.398;2023-07-30T11:51:17;5.57;;;1.60;;
46651;SDS011;32377;52.182;5.398;2023-07-30T11:53:53;6.22;;;1.48;;
46651;SDS011;32377;52.182;5.398;2023-07-30T11:56:22;12.68;;;1.95;;
46651;SDS011;32377;52.182;5.398;2023-07-30T11:58:50;5.47;;;1.33;;
46651;SDS011;32377;52.182;5.398;2023-07-30T12:01:19;9.15;;;2.10;;
46651;SDS011;32377;52.182;5.398;2023-07-30T12:03:45;9.73;;;1.50;;
46651;SDS011;32377;52.182;5.398;2023-07-30T12:06:11;6.13;;;1.63;;
46651;SDS011;32377;52.182;5.398;2023-07-30T12:08:37;7.88;;;2.10;;
46651;SDS011;32377;52.182;5.398;2023-07-30T12:11:04;7.60;;;1.40;;
46651;SDS011;32377;52.182;5.398;2023-07-30T12:13:31;9.65;;;1.75;;
46651;SDS011;32377;52.182;5.398;2023-07-30T12:15:57;4.78;;;1.70;;
46651;SDS011;32377;52.182;5.398;2023-07-30T12:18:24;4.70;;;1.52;;
46651;SDS011;32377;52.182;5.398;2023-07-30T12:20:51;13.10;;;2.28;;
46651;SDS011;32377;52.182;5.398;2023-07-30T12:23:18;9.43;;;1.95;;
46651;SDS011;32377;52.182;5.398;2023-07-30T12:25:44;7.47;;;2.15;;
46651;SDS011;32377;52.182;5.398;2023-07-30T12:28:10;6.97;;;1.88;;
46651;SDS011;32377;52.182;5.398;2023-07-30T12:30:36;7.40;;;1.50;;
46651;SDS011;32377;52.182;5.398;2023-07-30T12:33:02;4.78;;;1.52;;
46651;SDS011;32377;52.182;5.398;2023-07-30T12:35:29;4.88;;;1.20;;
46651;SDS011;32377;52.182;5.398;2023-07-30T12:37:55;8.70;;;1.63;;
46651;SDS011;32377;52.182;5.398;2023-07-30T12:40:22;5.35;;;1.20;;
46651;SDS011;32377;52.182;5.398;2023-07-30T12:42:47;5.97;;;1.17;;
46651;SDS011;32377;52.182;5.398;2023-07-30T12:45:13;7.57;;;1.25;;
46651;SDS011;32377;52.182;5.398;2023-07-30T12:47:39;6.60;;;1.33;;
46651;SDS011;32377;52.182;5.398;2023-07-30T12:50:05;9.35;;;1.48;;
46651;SDS011;32377;52.182;5.398;2023-07-30T12:52:32;6.55;;;1.52;;
46651;SDS011;32377;52.182;5.398;2023-07-30T12:54:58;9.38;;;1.55;;
46651;SDS011;32377;52.182;5.398;2023-07-30T12:57:24;4.90;;;1.35;;
46651;SDS011;32377;52.182;5.398;2023-07-30T12:59:49;11.18;;;1.70;;
46651;SDS011;32377;52.182;5.398;2023-07-30T13:02:15;7.45;;;1.67;;
46651;SDS011;32377;52.182;5.398;2023-07-30T13:04:41;9.52;;;1.73;;
46651;SDS011;32377;52.182;5.398;2023-07-30T13:07:06;5.82;;;1.27;;
46651;SDS011;32377;52.182;5.398;2023-07-30T13:09:32;5.25;;;1.55;;
46651;SDS011;32377;52.182;5.398;2023-07-30T13:11:58;4.00;;;1.08;;
46651;SDS011;32377;52.182;5.398;2023-07-30T13:14:23;7.13;;;1.05;;
46651;SDS011;32377;52.182;5.398;2023-07-30T13:16:49;3.65;;;0.90;;
46651;SDS011;32377;52.182;5.398;2023-07-30T13:19:15;5.18;;;0.98;;
46651;SDS011;32377;52.182;5.398;2023-07-30T13:21:40;4.90;;;1.13;;
46651;SDS011;32377;52.182;5.398;2023-07-30T13:24:06;9.68;;;1.55;;
46651;SDS011;32377;52.182;5.398;2023-07-30T13:26:32;4.63;;;1.20;;
46651;SDS011;32377;52.182;5.398;2023-07-30T13:28:57;5.78;;;1.60;;
46651;SDS011;32377;52.182;5.398;2023-07-30T13:31:23;4.57;;;1.05;;
46651;SDS011;32377;52.182;5.398;2023-07-30T13:33:48;6.47;;;1.25;;
46651;SDS011;32377;52.182;5.398;2023-07-30T13:36:16;3.67;;;1.42;;
46651;SDS011;32377;52.182;5.398;2023-07-30T13:38:41;6.13;;;1.27;;
46651;SDS011;32377;52.182;5.398;2023-07-30T13:41:08;8.30;;;1.58;;
46651;SDS011;32377;52.182;5.398;2023-07-30T13:43:34;9.27;;;1.50;;
46651;SDS011;32377;52.182;5.398;2023-07-30T13:46:00;3.67;;;1.15;;
46651;SDS011;32377;52.182;5.398;2023-07-30T13:48:25;3.35;;;0.95;;
46651;SDS011;32377;52.182;5.398;2023-07-30T13:50:52;4.32;;;1.25;;
46651;SDS011;32377;52.182;5.398;2023-07-30T13:53:18;6.38;;;1.30;;
46651;SDS011;32377;52.182;5.398;2023-07-30T13:55:44;7.38;;;1.40;;
46651;SDS011;32377;52.182;5.398;2023-07-30T13:58:10;4.70;;;1.17;;
46651;SDS011;32377;52.182;5.398;2023-07-30T14:00:36;9.90;;;1.80;;
46651;SDS011;32377;52.182;5.398;2023-07-30T14:03:01;6.80;;;1.40;;
46651;SDS011;32377;52.182;5.398;2023-07-30T14:05:27;8.07;;;1.45;;
46651;SDS011;32377;52.182;5.398;2023-07-30T14:07:53;5.90;;;1.52;;
46651;SDS011;32377;52.182;5.398;2023-07-30T14:10:21;7.65;;;1.65;;
46651;SDS011;32377;52.182;5.398;2023-07-30T14:12:48;6.78;;;1.45;;
46651;SDS011;32377;52.182;5.398;2023-07-30T14:15:14;14.00;;;2.17;;
46651;SDS011;32377;52.182;5.398;2023-07-30T14:17:40;8.65;;;1.48;;
46651;SDS011;32377;52.182;5.398;2023-07-30T14:20:06;6.15;;;1.38;;
46651;SDS011;32377;52.182;5.398;2023-07-30T14:22:33;6.25;;;1.33;;
46651;SDS011;32377;52.182;5.398;2023-07-30T14:24:59;9.63;;;2.05;;
46651;SDS011;32377;52.182;5.398;2023-07-30T14:27:24;5.93;;;1.38;;
46651;SDS011;32377;52.182;5.398;2023-07-30T14:29:50;8.80;;;1.60;;
46651;SDS011;32377;52.182;5.398;2023-07-30T14:32:17;11.07;;;2.58;;
46651;SDS011;32377;52.182;5.398;2023-07-30T14:34:44;7.20;;;1.75;;
46651;SDS011;32377;52.182;5.398;2023-07-30T14:37:10;10.95;;;1.83;;
46651;SDS011;32377;52.182;5.398;2023-07-30T14:39:35;6.15;;;1.67;;